createdAt,value
2023-08-21T00:01:18.148Z,10.30
2023-08-21T00:06:09.944Z,10.90
2023-08-21T00:11:01.890Z,11.10
2023-08-21T00:15:53.718Z,9.70
2023-08-21T00:20:45.650Z,10.65
2023-08-21T00:25:37.424Z,10.85
2023-08-21T00:30:29.361Z,11.05
2023-08-21T00:35:21.282Z,12.07
2023-08-21T00:40:13.185Z,11.20
2023-08-21T00:45:05.647Z,11.40
2023-08-21T00:49:57.893Z,11.38
2023-08-21T00:54:50.154Z,11.50
2023-08-21T00:59:42.148Z,11.02
2023-08-21T01:04:33.948Z,11.10
2023-08-21T01:09:31.641Z,11.90
2023-08-21T01:14:56.111Z,13.35
2023-08-21T01:19:50.604Z,14.23
2023-08-21T01:24:42.540Z,13.18
2023-08-21T01:29:35.229Z,13.55
2023-08-21T01:34:29.692Z,13.68
2023-08-21T01:39:22.548Z,12.50
2023-08-21T01:44:14.264Z,11.85
2023-08-21T01:49:06.043Z,12.45
2023-08-21T01:53:57.815Z,11.90
2023-08-21T01:58:49.668Z,11.57
2023-08-21T02:03:43.060Z,11.32
2023-08-21T02:08:35.107Z,10.63
2023-08-21T02:13:26.949Z,11.60
2023-08-21T02:18:18.922Z,11.00
2023-08-21T02:23:10.790Z,11.93
2023-08-21T02:28:03.248Z,11.45
2023-08-21T02:32:55.348Z,12.00
2023-08-21T02:37:47.347Z,11.38
2023-08-21T02:42:39.681Z,11.52
2023-08-21T02:47:31.693Z,10.93
2023-08-21T02:52:23.596Z,10.75
2023-08-21T02:57:15.475Z,11.52
2023-08-21T03:02:07.315Z,10.57
2023-08-21T03:06:59.105Z,11.25
2023-08-21T03:11:50.903Z,12.10
2023-08-21T03:16:42.732Z,10.80
2023-08-21T03:21:34.740Z,10.93
2023-08-21T03:26:27.452Z,11.10
2023-08-21T03:31:21.088Z,11.07
2023-08-21T03:36:12.965Z,11.30
2023-08-21T03:41:06.372Z,11.13
2023-08-21T03:45:59.492Z,11.55
2023-08-21T03:50:51.614Z,11.07
2023-08-21T03:55:43.744Z,11.18
2023-08-21T04:00:35.578Z,10.80
2023-08-21T04:05:27.454Z,10.63
2023-08-21T04:10:19.208Z,11.15
2023-08-21T04:15:11.477Z,9.98
2023-08-21T04:20:03.924Z,11.23
2023-08-21T04:24:55.800Z,10.65
2023-08-21T04:29:47.634Z,10.27
2023-08-21T04:34:39.558Z,11.23
2023-08-21T04:39:31.765Z,10.68
2023-08-21T04:44:23.771Z,10.23
2023-08-21T04:49:15.811Z,10.23
2023-08-21T04:54:07.637Z,10.98
2023-08-21T04:58:59.645Z,10.80
2023-08-21T05:03:55.566Z,10.38
2023-08-21T05:08:47.656Z,11.25
2023-08-21T05:13:40.506Z,10.10
2023-08-21T05:18:35.591Z,9.82
2023-08-21T05:23:27.438Z,11.13
2023-08-21T05:28:24.733Z,11.90
2023-08-21T05:33:16.551Z,10.95
2023-08-21T05:38:09.987Z,11.50
2023-08-21T05:43:01.904Z,12.02
2023-08-21T05:47:54.052Z,11.43
2023-08-21T05:52:46.196Z,12.23
2023-08-21T05:57:38.811Z,12.18
2023-08-21T06:02:30.710Z,12.02
2023-08-21T06:07:24.676Z,11.45
2023-08-21T06:12:16.980Z,11.90
2023-08-21T06:17:10.515Z,11.77
2023-08-21T06:22:02.446Z,11.65
2023-08-21T06:26:55.724Z,12.02
2023-08-21T06:31:47.998Z,11.55
2023-08-21T06:36:39.868Z,11.63
2023-08-21T06:41:31.721Z,11.55
2023-08-21T06:46:23.534Z,11.38
2023-08-21T06:51:17.204Z,12.88
2023-08-21T06:56:09.658Z,10.88
2023-08-21T07:01:02.451Z,11.82
2023-08-21T07:05:58.486Z,11.77
2023-08-21T07:10:50.486Z,10.80
2023-08-21T07:15:42.220Z,12.32
2023-08-21T07:20:34.044Z,12.48
2023-08-21T07:25:28.536Z,11.93
2023-08-21T07:30:20.894Z,11.15
2023-08-21T07:35:13.224Z,10.55
2023-08-21T07:40:06.455Z,12.73
2023-08-21T07:44:58.383Z,12.48
2023-08-21T07:49:50.265Z,12.60
2023-08-21T07:54:42.108Z,12.30
2023-08-21T07:59:34.051Z,11.60
2023-08-21T08:04:25.815Z,12.05
2023-08-21T08:09:17.693Z,11.75
2023-08-21T08:14:09.581Z,11.68
2023-08-21T08:19:01.429Z,11.65
2023-08-21T08:23:53.295Z,11.02
2023-08-21T08:28:45.233Z,10.88
2023-08-21T08:33:37.116Z,10.60
2023-08-21T08:38:29.223Z,10.55
2023-08-21T08:43:22.389Z,10.52
2023-08-21T08:48:14.366Z,10.90
2023-08-21T08:53:16.179Z,11.85
2023-08-21T08:58:09.132Z,10.65
2023-08-21T09:03:00.996Z,11.15
2023-08-21T09:08:25.244Z,10.27
2023-08-21T09:13:19.491Z,10.75
2023-08-21T09:18:12.456Z,10.70
2023-08-21T09:23:05.733Z,11.70
2023-08-21T09:27:57.958Z,10.60
2023-08-21T09:32:58.165Z,11.07
2023-08-21T09:37:50.534Z,10.52
2023-08-21T09:42:42.424Z,10.10
2023-08-21T09:47:35.083Z,10.90
2023-08-21T09:52:27.872Z,11.30
2023-08-21T09:57:22.018Z,10.65
2023-08-21T10:02:14.487Z,10.45
2023-08-21T10:07:08.594Z,10.35
2023-08-21T10:12:00.500Z,10.02
2023-08-21T10:16:55.926Z,9.93
2023-08-21T10:21:50.473Z,9.77
2023-08-21T10:31:41.422Z,10.23
2023-08-21T10:36:45.766Z,10.00
2023-08-21T10:41:38.368Z,10.15
2023-08-21T10:46:54.063Z,10.00
2023-08-21T10:51:46.052Z,10.07
2023-08-21T10:56:37.866Z,9.77
2023-08-21T11:01:46.187Z,10.20
2023-08-21T11:06:38.760Z,9.77
2023-08-21T11:11:30.707Z,10.23
2023-08-21T11:16:22.481Z,9.32
2023-08-21T11:21:14.501Z,9.20
2023-08-21T11:26:19.333Z,10.05
2023-08-21T11:31:13.932Z,9.68
2023-08-21T11:36:06.274Z,8.75
2023-08-21T11:41:01.819Z,9.57
2023-08-21T11:45:59.041Z,8.88
2023-08-21T11:50:51.605Z,8.52
2023-08-21T11:55:43.373Z,8.75
2023-08-21T12:00:35.371Z,8.48
2023-08-21T12:05:30.519Z,8.07
2023-08-21T12:10:30.754Z,8.93
2023-08-21T12:15:22.946Z,9.05
2023-08-21T12:20:15.291Z,9.38
2023-08-21T12:25:08.454Z,8.80
2023-08-21T12:30:00.361Z,8.65
2023-08-21T12:34:52.472Z,8.63
2023-08-21T12:39:44.500Z,8.07
2023-08-21T12:44:37.006Z,8.95
2023-08-21T12:49:28.864Z,8.05
2023-08-21T12:54:20.805Z,8.75
2023-08-21T12:59:16.436Z,8.75
2023-08-21T13:04:09.473Z,8.20
2023-08-21T13:09:01.609Z,9.18
2023-08-21T13:13:53.506Z,8.68
2023-08-21T13:18:45.448Z,9.82
2023-08-21T13:23:37.223Z,9.23
2023-08-21T13:28:29.434Z,9.18
2023-08-21T13:33:21.332Z,9.38
2023-08-21T13:38:16.599Z,9.63
2023-08-21T13:43:11.046Z,9.15
2023-08-21T13:48:03.019Z,9.32
2023-08-21T13:52:54.859Z,8.93
2023-08-21T13:57:47.122Z,10.00
2023-08-21T14:02:39.980Z,9.75
2023-08-21T14:07:35.746Z,9.55
2023-08-21T14:12:30.508Z,9.80
2023-08-21T14:17:22.391Z,9.02
2023-08-21T14:22:14.424Z,9.50
2023-08-21T14:27:06.298Z,9.77
2023-08-21T14:32:01.166Z,9.40
2023-08-21T14:36:53.006Z,9.85
2023-08-21T14:41:45.050Z,9.13
2023-08-21T14:46:43.169Z,9.48
2023-08-21T14:51:35.435Z,10.52
2023-08-21T14:56:28.041Z,8.88
2023-08-21T15:01:19.883Z,9.45
2023-08-21T15:06:11.813Z,9.63
2023-08-21T15:11:03.845Z,9.98
2023-08-21T15:15:55.729Z,10.32
2023-08-21T15:20:47.643Z,10.43
2023-08-21T15:25:39.481Z,10.15
2023-08-21T15:30:31.454Z,9.90
2023-08-21T15:35:23.405Z,10.40
2023-08-21T15:40:15.405Z,9.73
2023-08-21T15:45:07.831Z,9.65
2023-08-21T15:49:59.635Z,9.68
2023-08-21T15:54:54.322Z,10.32
2023-08-21T15:59:46.368Z,9.60
2023-08-21T16:04:38.775Z,10.13
2023-08-21T16:09:30.598Z,9.57
2023-08-21T16:14:22.796Z,10.23
2023-08-21T16:19:14.686Z,9.50
2023-08-21T16:24:06.808Z,9.52
2023-08-21T16:28:58.687Z,9.80
2023-08-21T16:33:50.412Z,9.90
2023-08-21T16:38:42.250Z,10.55
2023-08-21T16:43:34.170Z,10.25
2023-08-21T16:48:26.049Z,10.27
2023-08-21T16:53:23.406Z,10.35
2023-08-21T16:58:16.547Z,10.00
2023-08-21T17:03:11.127Z,9.90
2023-08-21T17:08:03.399Z,9.80
2023-08-21T17:12:55.545Z,10.48
2023-08-21T17:17:47.848Z,10.70
2023-08-21T17:22:39.722Z,10.30
2023-08-21T17:27:31.515Z,10.20
2023-08-21T17:32:23.451Z,10.25
2023-08-21T17:37:16.444Z,11.35
2023-08-21T17:42:12.195Z,10.70
2023-08-21T17:47:04.263Z,11.10
2023-08-21T17:51:56.267Z,10.35
2023-08-21T17:56:48.114Z,11.05
2023-08-21T18:01:39.948Z,10.75
2023-08-21T18:06:31.706Z,10.75
2023-08-21T18:11:23.555Z,10.18
2023-08-21T18:16:15.478Z,10.63
2023-08-21T18:21:07.910Z,10.38
2023-08-21T18:26:00.065Z,10.35
2023-08-21T18:30:54.336Z,10.25
2023-08-21T18:35:46.915Z,9.85
2023-08-21T18:40:39.696Z,9.73
2023-08-21T18:45:31.461Z,10.73
2023-08-21T18:50:33.724Z,10.63
2023-08-21T18:55:25.560Z,10.38
2023-08-21T19:00:19.300Z,10.93
2023-08-21T19:05:11.806Z,10.25
2023-08-21T19:10:03.927Z,12.35
2023-08-21T19:14:55.834Z,11.88
2023-08-21T19:19:47.640Z,11.77
2023-08-21T19:24:39.491Z,11.25
2023-08-21T19:29:32.251Z,10.10
2023-08-21T19:34:24.445Z,10.57
2023-08-21T19:39:17.145Z,10.88
2023-08-21T19:44:09.045Z,10.95
2023-08-21T19:49:00.866Z,10.88
2023-08-21T19:53:54.342Z,10.90
2023-08-21T19:58:46.322Z,11.98
2023-08-21T20:03:38.473Z,12.15
2023-08-21T20:08:31.179Z,12.13
2023-08-21T20:13:23.115Z,12.05
2023-08-21T20:18:15.103Z,12.63
2023-08-21T20:23:07.102Z,11.52
2023-08-21T20:28:00.161Z,10.60
2023-08-21T20:32:52.136Z,11.52
2023-08-21T20:37:44.068Z,11.43
2023-08-21T20:42:36.535Z,11.38
2023-08-21T20:47:28.533Z,11.55
2023-08-21T20:52:20.481Z,11.27
2023-08-21T20:57:12.367Z,11.27
2023-08-21T21:02:04.296Z,11.07
2023-08-21T21:06:56.103Z,11.25
2023-08-21T21:11:47.939Z,11.23
2023-08-21T21:16:41.437Z,11.10
2023-08-21T21:21:33.444Z,11.80
2023-08-21T21:26:25.239Z,12.52
2023-08-21T21:31:17.116Z,12.57
2023-08-21T21:36:08.948Z,11.32
2023-08-21T21:41:00.916Z,12.93
2023-08-21T21:45:57.987Z,12.15
2023-08-21T21:50:50.600Z,12.13
2023-08-21T21:55:42.472Z,12.75
2023-08-21T22:00:34.323Z,10.85
2023-08-21T22:05:26.040Z,11.63
2023-08-21T22:10:17.917Z,10.88
2023-08-21T22:15:10.952Z,12.88
2023-08-21T22:20:06.685Z,12.15
2023-08-21T22:24:58.505Z,11.93
2023-08-21T22:29:50.289Z,11.88
2023-08-21T22:34:42.096Z,12.45
2023-08-21T22:39:33.841Z,13.43
2023-08-21T22:44:25.703Z,12.52
2023-08-21T22:49:17.692Z,12.32
2023-08-21T22:54:09.490Z,11.27
2023-08-21T22:59:01.319Z,11.90
2023-08-21T23:03:55.010Z,11.25
2023-08-21T23:08:46.896Z,11.90
2023-08-21T23:13:39.316Z,11.70
2023-08-21T23:18:31.135Z,11.80
2023-08-21T23:23:23.068Z,11.20
2023-08-21T23:28:14.815Z,11.52
2023-08-21T23:33:07.114Z,11.35
2023-08-21T23:37:58.894Z,11.63
2023-08-21T23:42:50.752Z,12.15
2023-08-21T23:47:44.531Z,12.10
2023-08-21T23:52:38.718Z,11.73
2023-08-21T23:57:31.039Z,11.88
